PTKK Airport Information

Runway Information
Runway 04 Length 6006 ft width 150 ft
Elevation 10 ft Threshold ft Heading 46
Runway 22 Length 6006 ft Width 150 ft
Elevation 10 ft Threshold ft Heading 226
Airport Frequencies
Type CTAF Name CTAF Frequency 123.6 MHZ
Type RDO Name RDO Frequency 123.6 MHZ
Airport Navaids
Type NDB-DME Name Truk Frequency 375 KHZ
Airport Weather Information & NOTAM
ADDS - METARS form results

(1703 UTC 29 November 2022)
Data provider http://aviationweather.gov/metar/data/
 
Forecast for: PTKK (WENO IS/CHUUK , FM)
Text: PTKK 291122Z 2912/3012 05010G20KT P6SM VCSH SCT014 SCT120
Forecast period: 1200 UTC 29 November 2022 to 1200 UTC 30 November 2022
Forecast type: FROM: standard forecast or significant change
Winds: from the NE (50 degrees) at 12 MPH (10 knots; 5.1 m/s)
gusting to 23 MPH (20 knots; 10.3 m/s)
Visibility: 6 or more miles (10+ km)
Ceiling: at least 12,000 feet AGL
Clouds: scattered clouds at 1400 feet AGL
scattered clouds at 12000 feet AGL
Weather: VCSH  (showers in vicinity)